Main page
METAR-TAF:

METAR-TAF

Airports :

Calais–Dunkerque Airport

Calais, France

latitude: 50-57-39N, longitude: 001-57-05E, elevation: 4 m

Current weather observation

The report was made 19 minutes ago, at 09:30 UTC
Wind 4 kt from the South/Southeast, varying between Southeast and Southwest
Temperature 18°C
Humidity 77%
Pressure 999 hPa
Visibility 10 km or more
thunderstorm

METAR: LFAC 090930Z AUTO 16004KT 130V230 9999 TS FEW044/// SCT120/// OVC170/// ///CB 18/14 Q0999

Time: 11:49 (09:49 UTC)


TAF: missing

Weather observations and forecasts of more than 4000 airports (METAR and TAF reports).

The available stations are represented by yellow and red dots on the map.

Hover mouse over dot to see the name of the station.

Then click to see weather observations and forecasts.

To change the map : click on the green buttons with a black cross to zoom in, on the green button with a dash to zoom out, or on the green arrows for adjacent maps.


METAR-TAF: